Latest Weather Observations for Gladstone

IDQ60801

Issued at 2:02 pm EST Thursday 18 December 2014 (issued every 30 minutes, with the page automatically refreshed every 10 minutes)

About weather observations | Map of weather stations | Latest weather observations for QLD | Other Formats
Station Details ID: 039123 Name: GLADSTONE RADAR Lat: -23.86 Lon: 151.26 Height: 74.5 m
Data from the previous 72 hours. | See also: Recent months at Gladstone
Date/Time
EST
Temp
°C
App
Temp
°C
Dew
Point
Rel
Hum
%
Delta-T
°C
Wind Press
QNH
hPa
Press
MSL
hPa
Rain
since 9 am
mm
Dir
 
Spd
km/h
Gust
km/h
Spd
kts
Gust
kts
18/02:00pm 31.7 34.3 22.7 59 6.2 NNE 13 30 7 16 1009.9 1009.4 0.0
18/01:30pm 31.6 33.5 23.4 61 5.7 NNE 19 35 10 19 1010.6 1010.1 0.0
18/01:00pm 32.1 35.0 23.9 62 5.7 NE 15 32 8 17 1010.9 1010.4 0.0
18/12:30pm 31.3 32.6 23.4 63 5.5 NE 22 35 12 19 1011.0 1010.5 0.0
18/12:00pm 31.5 32.8 23.3 61 5.7 NE 22 37 12 20 1011.2 1010.7 0.0
18/11:30am 31.3 32.0 22.9 61 5.8 NE 24 35 13 19 1011.4 1010.9 0.0
18/11:00am 31.8 33.4 23.3 60 5.9 NE 20 33 11 18 1011.6 1011.1 0.0
18/10:30am 32.1 34.3 23.9 62 5.7 NE 19 28 10 15 1011.9 1011.4 0.0
18/10:00am 32.3 35.1 21.5 53 7.3 NNE 9 22 5 12 1012.0 1011.5 0.0
18/09:30am 29.7 32.8 21.1 60 5.8 N 6 17 3 9 1012.2 1011.7 0.0
18/09:00am 28.9 31.4 21.1 62 5.2 N 9 17 5 9 1012.3 1011.9 0.0
18/08:30am 29.5 33.2 22.2 65 5.0 N 6 13 3 7 1012.3 1011.9 0.0
18/08:00am 29.6 33.6 23.1 68 4.5 NNE 7 17 4 9 1012.1 1011.6 0.0
18/07:30am 28.4 31.3 22.4 70 4.1 N 11 22 6 12 1012.1 1011.6 0.0
18/07:00am 26.7 29.4 22.8 79 2.7 NW 13 20 7 11 1011.9 1011.4 0.0
18/06:30am 25.8 29.0 23.1 85 1.8 NNW 11 20 6 11 1011.5 1011.0 0.0
18/06:00am 25.9 30.4 23.9 89 1.4 NNW 7 13 4 7 1011.0 1010.5 0.0
18/05:30am 25.3 28.1 23.7 91 1.1 NNW 15 24 8 13 1010.2 1009.7 0.0
18/05:00am 25.2 28.1 23.8 92 1.0 N 15 24 8 13 1009.9 1009.4 0.0
18/04:30am 25.2 29.0 24.0 93 0.8 N 11 20 6 11 1009.9 1009.4 0.0
18/04:00am 25.3 29.5 24.1 93 0.8 N 9 19 5 10 1009.9 1009.4 0.0
18/03:30am 25.4 29.5 24.0 92 1.0 N 9 17 5 9 1009.8 1009.3 0.0
18/03:00am 25.2 29.7 24.0 93 0.8 N 7 13 4 7 1009.8 1009.3 0.0
18/02:30am 24.9 30.1 23.5 92 1.0 NE 2 7 1 4 1009.8 1009.3 0.0
18/02:00am 24.8 28.8 22.7 88 1.4 ESE 6 9 3 5 1009.8 1009.3 0.0
18/01:30am 25.0 30.2 22.9 88 1.4 CALM 0 0 0 0 1010.0 1009.5 0.0
18/01:00am 25.1 30.4 23.0 88 1.4 CALM 0 4 0 2 1010.1 1009.6 0.0
18/12:30am 25.7 31.1 23.2 86 1.7 CALM 0 0 0 0 1010.3 1009.8 0.0
18/12:00am 26.0 30.3 23.3 85 1.8 NNW 6 15 3 8 1010.3 1009.8 0.0
 
Date/Time
EST
Temp
°C
App
Temp
°C
Dew
Point
Rel
Hum
%
Delta-T
°C
Wind Press
QNH
hPa
Press
MSL
hPa
Rain
since 9 am
mm
Dir
 
Spd
km/h
Gust
km/h
Spd
kts
Gust
kts
17/11:30pm 26.3 29.4 22.8 81 2.4 NW 11 19 6 10 1009.8 1009.3 0.0
17/11:00pm 26.2 29.8 22.1 78 2.8 NW 6 11 3 6 1009.8 1009.3 0.0
17/10:30pm 26.7 29.4 22.1 76 3.1 NNW 11 17 6 9 1009.7 1009.2 0.0
17/10:00pm 26.1 30.5 22.8 82 2.2 N 4 11 2 6 1009.5 1009.0 0.0
17/09:30pm 26.6 30.8 23.1 81 2.4 NNW 6 9 3 5 1009.4 1008.9 0.0
17/09:00pm 26.3 30.8 23.0 82 2.2 NNE 4 11 2 6 1008.8 1008.3 0.0
17/08:30pm 26.7 30.9 23.2 81 2.4 N 6 13 3 7 1008.6 1008.1 0.0
17/08:00pm 27.1 30.6 22.9 78 2.9 N 9 15 5 8 1008.1 1007.6 0.0
17/07:30pm 27.4 31.3 23.0 77 3.0 N 7 11 4 6 1008.0 1007.5 0.0
17/07:00pm 27.8 31.1 23.2 76 3.2 NNE 11 17 6 9 1007.9 1007.4 0.0
17/06:30pm 28.5 31.7 23.0 72 3.8 NNE 11 19 6 10 1007.6 1007.1 0.0
17/06:00pm 29.3 32.6 22.5 67 4.6 NNE 9 19 5 10 1007.0 1006.5 0.0
17/05:30pm 30.0 32.2 21.9 62 5.5 N 13 20 7 11 1006.2 1005.7 0.0
17/05:00pm 31.4 33.6 21.8 56 6.5 NNE 13 24 7 13 1005.7 1005.2 0.0
17/04:30pm 31.9 34.3 22.3 56 6.6 NNE 13 24 7 13 1005.7 1005.2 0.0
17/04:00pm 32.4 35.7 23.9 61 5.9 NE 13 22 7 12 1005.8 1005.3 0.0
17/03:30pm 32.5 36.4 24.8 64 5.4 NE 13 20 7 11 1005.9 1005.4 0.0
17/03:00pm 32.7 37.0 25.5 66 5.1 NE 13 22 7 12 1006.2 1005.7 0.0
17/02:30pm 32.8 36.6 25.3 64 5.3 NE 15 24 8 13 1006.8 1006.3 0.0
17/02:00pm 32.8 38.1 26.4 69 4.6 NE 11 19 6 10 1007.1 1006.6 0.0
17/01:30pm 31.2 34.8 24.3 66 4.8 NE 13 24 7 13 1007.3 1006.8 0.0
17/01:00pm 32.1 35.9 24.7 65 5.2 NE 13 20 7 11 1007.5 1007.0 0.0
17/12:30pm 34.3 38.3 25.1 58 6.5 NE 13 22 7 12 1007.8 1007.3 0.0
17/12:00pm 32.5 35.0 23.2 58 6.4 NE 15 22 8 12 1008.0 1007.5 0.0
17/11:30am 33.8 35.7 19.8 43 9.3 NNW 9 22 5 12 1008.3 1007.8 0.0
17/11:00am 32.8 35.5 20.7 49 8.1 N 7 17 4 9 1008.6 1008.1 0.0
17/10:30am 31.5 33.7 20.4 51 7.4 NW 9 17 5 9 1008.9 1008.4 0.0
17/10:00am 31.5 33.6 21.7 56 6.6 NNW 13 24 7 13 1008.8 1008.3 0.0
17/09:30am 29.6 32.0 21.5 61 5.4 NW 11 22 6 12 1009.2 1008.7 0.0
17/09:00am 28.4 31.3 23.1 73 3.6 NNW 13 20 7 11 1009.1 1008.6 0.0
17/08:30am 27.5 31.3 22.7 75 3.3 NW 7 17 4 9 1009.4 1008.9 0.0
17/08:00am 27.3 30.1 21.6 71 3.8 NW 9 17 5 9 1009.6 1009.1 0.0
17/07:30am 26.4 30.2 22.7 80 2.5 W 7 13 4 7 1009.6 1009.1 0.0
17/07:00am 25.4 29.1 22.3 83 2.1 WSW 6 13 3 7 1009.5 1009.0 0.0
17/06:30am 25.4 29.2 22.7 85 1.8 WSW 7 13 4 7 1009.2 1008.7 0.0
17/06:00am 24.2 27.9 22.5 90 1.1 W 7 11 4 6 1008.3 1007.8 0.0
17/05:30am 23.8 26.4 21.9 89 1.3 NW 11 15 6 8 1007.6 1007.1 0.0
17/05:00am 23.8 26.7 21.7 88 1.4 NW 9 13 5 7 1007.7 1007.2 0.0
17/04:30am 23.2 25.6 21.5 90 1.1 NNE 11 17 6 9 1007.0 1006.5 0.0
17/04:00am 23.5 26.9 21.6 89 1.3 WSW 6 7 3 4 1007.5 1007.0 0.0
17/03:30am 23.6 26.4 21.5 88 1.4 WSW 9 13 5 7 1007.5 1007.0 0.0
17/03:00am 23.6 26.7 21.5 88 1.4 WSW 7 11 4 6 1007.5 1007.0 0.0
17/02:30am 23.5 27.7 21.8 90 1.1 W 2 7 1 4 1007.4 1006.9 0.0
17/02:00am 23.8 27.4 22.1 90 1.1 WSW 6 7 3 4 1007.5 1007.0 0.0
17/01:30am 24.2 27.9 22.3 89 1.3 W 6 9 3 5 1007.3 1006.8 0.0
17/01:00am 24.4 27.9 22.1 87 1.5 W 7 11 4 6 1007.6 1007.1 0.0
17/12:30am 24.8 27.9 22.1 85 1.8 WNW 9 17 5 9 1007.8 1007.3 0.0
17/12:00am 25.1 27.8 22.2 84 1.9 NNW 11 15 6 8 1007.8 1007.3 0.0
 
Date/Time
EST
Temp
°C
App
Temp
°C
Dew
Point
Rel
Hum
%
Delta-T
°C
Wind Press
QNH
hPa
Press
MSL
hPa
Rain
since 9 am
mm
Dir
 
Spd
km/h
Gust
km/h
Spd
kts
Gust
kts
16/11:30pm 25.0 28.2 22.3 85 1.8 N 9 11 5 6 1008.0 1007.5 0.0
16/11:00pm 25.2 28.9 22.5 85 1.8 NNW 7 13 4 7 1008.5 1008.0 0.0
16/10:30pm 25.2 28.9 22.5 85 1.8 NNW 7 15 4 8 1008.7 1008.2 0.0
16/10:00pm 25.4 28.8 22.7 85 1.8 NW 9 19 5 10 1009.0 1008.5 0.0
16/09:30pm 25.5 28.7 23.0 86 1.7 NNW 11 15 6 8 1009.0 1008.5 0.0
16/09:00pm 25.6 28.7 22.9 85 1.8 NW 11 19 6 10 1008.8 1008.3 0.0
16/08:30pm 25.7 28.3 22.6 83 2.1 NW 13 22 7 12 1008.6 1008.1 0.0
16/08:00pm 25.8 28.8 22.7 83 2.1 NW 11 17 6 9 1008.5 1008.0 0.0
16/07:30pm 26.0 28.6 22.7 82 2.2 NNW 13 19 7 10 1008.0 1007.5 0.0
16/07:00pm 26.4 28.7 22.0 77 3.0 NNW 13 22 7 12 1007.5 1007.0 0.0
16/06:30pm 26.8 29.3 21.8 74 3.4 NNW 11 20 6 11 1007.2 1006.7 0.0
16/06:00pm 27.4 29.7 22.1 73 3.6 N 13 19 7 10 1006.8 1006.3 0.0
16/05:30pm 27.7 29.7 22.2 72 3.7 N 15 24 8 13 1006.6 1006.1 0.0
16/05:00pm 28.4 30.4 22.2 69 4.2 NNE 15 32 8 17 1006.6 1006.1 0.0
16/04:30pm 29.1 30.9 21.8 64 4.9 NNE 15 24 8 13 1006.5 1006.0 0.0
16/04:00pm 29.1 30.9 22.6 68 4.4 NNE 17 32 9 17 1006.5 1006.0 0.0
16/03:30pm 29.4 31.0 22.1 65 4.9 NE 17 28 9 15 1006.8 1006.3 0.0
16/03:00pm 30.0 31.5 22.7 65 5.0 NE 19 32 10 17 1007.0 1006.5 0.0
16/02:30pm 29.7 30.7 22.2 64 5.1 NE 20 33 11 18 1007.6 1007.1 0.0
16/02:00pm 29.7 30.8 21.9 63 5.3 NE 19 35 10 19 1008.1 1007.6 0.0
16/01:30pm 30.7 32.4 22.3 61 5.7 NE 17 30 9 16 1008.4 1007.9 0.0
16/01:00pm 30.3 31.5 22.2 62 5.5 NE 19 32 10 17 1008.6 1008.1 0.0
16/12:30pm 31.0 32.3 22.3 60 5.9 NE 19 28 10 15 1009.0 1008.5 0.0
16/12:00pm 31.1 32.4 21.6 57 6.4 NE 17 30 9 16 1009.5 1009.0 0.0
16/11:30am 30.6 31.4 21.4 58 6.2 NE 19 28 10 15 1010.1 1009.6 0.0
16/11:00am 31.4 33.2 21.8 56 6.5 NE 15 26 8 14 1010.5 1010.0 0.0
16/10:30am 30.4 31.6 19.1 50 7.4 N 11 17 6 9 1011.0 1010.5 0.0
16/10:00am 30.1 32.0 20.6 56 6.3 NNW 11 20 6 11 1011.3 1010.8 0.0
16/09:30am 28.3 30.4 20.1 61 5.4 NNW 9 17 5 9 1011.5 1011.0 0.0
16/09:00am 28.0 30.3 20.6 64 4.9 NW 9 19 5 10 1011.7 1011.2 0.0
16/08:30am 26.5 27.7 19.1 64 4.8 NW 11 20 6 11 1011.5 1011.0 0.0
16/08:00am 25.9 28.9 20.9 74 3.3 WNW 6 19 3 10 1011.6 1011.1 0.0
16/07:30am 25.8 29.2 21.7 78 2.7 WNW 6 13 3 7 1011.6 1011.1 0.0
16/07:00am 25.0 28.6 21.3 80 2.5 WNW 4 9 2 5 1011.4 1010.9 0.0
16/06:30am 24.1 28.3 21.0 83 2.0 CALM 0 0 0 0 1011.3 1010.8 0.0
16/06:00am 23.2 27.4 20.9 87 1.5 CALM 0 0 0 0 1010.9 1010.4 0.0
16/05:30am 23.0 25.8 20.5 86 1.6 NW 6 7 3 4 1010.6 1010.1 0.0
16/05:00am 23.0 25.8 20.5 86 1.6 NNW 6 9 3 5 1010.1 1009.6 0.0
16/04:30am 22.9 26.9 20.6 87 1.5 CALM 0 0 0 0 1009.7 1009.2 0.0
16/04:00am 22.9 26.9 20.6 87 1.5 CALM 0 0 0 0 1009.6 1009.1 0.0
16/03:30am 23.3 26.6 20.8 86 1.6 NNW 4 7 2 4 1009.5 1009.0 0.0
16/03:00am 23.2 27.3 20.7 86 1.6 CALM 0 0 0 0 1009.6 1009.1 0.0
16/02:30am 22.9 25.8 20.6 87 1.5 WNW 6 9 3 5 1009.7 1009.2 0.0
16/02:00am 23.3 25.6 20.6 85 1.8 NNW 9 11 5 6 1009.8 1009.3 0.0
16/01:30am 23.5 25.8 20.6 84 1.9 NNW 9 15 5 8 1010.1 1009.6 0.0
16/01:00am 23.6 25.9 20.7 84 1.9 NNW 9 11 5 6 1010.2 1009.7 0.0
16/12:30am 23.4 25.6 20.5 84 1.9 N 9 13 5 7 1010.4 1009.9 0.0
16/12:00am 23.8 26.0 20.5 82 2.2 NNW 9 13 5 7 1010.9 1010.4 0.0
 
Date/Time
EST
Temp
°C
App
Temp
°C
Dew
Point
Rel
Hum
%
Delta-T
°C
Wind Press
QNH
hPa
Press
MSL
hPa
Rain
since 9 am
mm
Dir
 
Spd
km/h
Gust
km/h
Spd
kts
Gust
kts
15/11:30pm 23.9 26.3 20.8 83 2.0 NNW 9 13 5 7 1011.4 1010.9 0.0
15/11:00pm 23.9 26.2 20.6 82 2.2 NNE 9 13 5 7 1011.9 1011.4 0.0
15/10:30pm 23.8 26.1 20.7 83 2.0 NNE 9 13 5 7 1011.9 1011.4 0.0
15/10:00pm 23.8 26.2 20.9 84 1.9 NNE 9 15 5 8 1011.8 1011.3 0.0
15/09:30pm 24.0 26.9 21.1 84 1.9 N 7 9 4 5 1011.6 1011.1 0.0
15/09:00pm 23.6 26.0 20.9 85 1.8 NE 9 15 5 8 1011.2 1010.7 0.0
15/08:30pm 23.7 26.1 20.8 84 1.9 NE 9 17 5 9 1010.8 1010.3 0.0
15/08:00pm 23.8 25.8 20.7 83 2.0 NE 11 17 6 9 1010.7 1010.2 0.0
15/07:30pm 24.1 25.7 20.8 82 2.2 NE 13 20 7 11 1010.4 1009.9 0.0
15/07:00pm 24.2 25.7 20.5 80 2.4 ENE 13 19 7 10 1010.1 1009.6 0.0
15/06:30pm 24.8 25.9 20.5 77 2.8 ENE 15 22 8 12 1009.9 1009.4 0.0
15/06:00pm 25.2 26.1 20.9 77 2.8 ENE 17 24 9 13 1009.8 1009.3 0.0
15/05:30pm 25.5 26.6 20.5 74 3.3 NE 15 24 8 13 1009.3 1008.8 0.0
15/05:00pm 26.3 27.1 20.6 71 3.8 NE 17 24 9 13 1008.9 1008.4 0.0
15/04:30pm 26.8 28.2 21.1 71 3.8 NE 15 24 8 13 1008.6 1008.1 0.0
15/04:00pm 27.2 27.7 20.8 68 4.2 NE 19 32 10 17 1008.4 1007.9 0.0
15/03:30pm 28.0 28.6 21.1 66 4.6 NE 19 28 10 15 1008.0 1007.5 0.0
15/03:00pm 28.5 29.6 21.3 65 4.8 NE 17 28 9 15 1008.2 1007.7 0.0
15/02:30pm 28.5 29.1 21.0 64 5.0 NE 19 28 10 15 1008.3 1007.8 0.0

Other Formats:

Comma delimited format used in spreadsheet applications
http://www.bom.gov.au/fwo/IDQ60801/IDQ60801.94380.axf

JavaScript Object Notation format (JSON) in row-major order
http://www.bom.gov.au/fwo/IDQ60801/IDQ60801.94380.json